sensor_id;sensor_type;location;lat;lon;timestamp;P1;durP1;ratioP1;P2;durP2;ratioP2
48285;SDS011;34102;47.716;10.296;2022-12-10T06:31:58;23.08;;;14.35;;
48285;SDS011;34102;47.716;10.296;2022-12-10T06:34:23;26.58;;;14.27;;
48285;SDS011;34102;47.716;10.296;2022-12-10T06:36:48;25.00;;;14.73;;
48285;SDS011;34102;47.716;10.296;2022-12-10T06:39:14;24.40;;;13.90;;
48285;SDS011;34102;47.716;10.296;2022-12-10T06:41:39;24.52;;;14.10;;
48285;SDS011;34102;47.716;10.296;2022-12-10T06:44:08;24.02;;;13.93;;
48285;SDS011;34102;47.716;10.296;2022-12-10T06:46:33;24.25;;;14.27;;
48285;SDS011;34102;47.716;10.296;2022-12-10T06:49:00;23.75;;;13.65;;
48285;SDS011;34102;47.716;10.296;2022-12-10T06:51:26;26.52;;;15.45;;
48285;SDS011;34102;47.716;10.296;2022-12-10T06:53:52;27.15;;;14.77;;
48285;SDS011;34102;47.716;10.296;2022-12-10T06:56:17;22.77;;;13.55;;
48285;SDS011;34102;47.716;10.296;2022-12-10T06:58:43;21.58;;;12.88;;
48285;SDS011;34102;47.716;10.296;2022-12-10T07:01:24;24.13;;;14.55;;
48285;SDS011;34102;47.716;10.296;2022-12-10T07:03:52;23.00;;;14.60;;
48285;SDS011;34102;47.716;10.296;2022-12-10T07:06:19;23.75;;;14.02;;
48285;SDS011;34102;47.716;10.296;2022-12-10T07:08:45;25.65;;;15.80;;
48285;SDS011;34102;47.716;10.296;2022-12-10T07:11:11;24.20;;;13.90;;
48285;SDS011;34102;47.716;10.296;2022-12-10T07:13:37;22.35;;;13.55;;
48285;SDS011;34102;47.716;10.296;2022-12-10T07:16:02;21.95;;;12.95;;
48285;SDS011;34102;47.716;10.296;2022-12-10T07:18:28;19.85;;;13.25;;
48285;SDS011;34102;47.716;10.296;2022-12-10T07:20:53;21.10;;;13.38;;
48285;SDS011;34102;47.716;10.296;2022-12-10T07:23:19;20.90;;;12.68;;
48285;SDS011;34102;47.716;10.296;2022-12-10T07:25:45;21.83;;;13.13;;
48285;SDS011;34102;47.716;10.296;2022-12-10T07:28:10;23.98;;;14.85;;
48285;SDS011;34102;47.716;10.296;2022-12-10T07:30:35;23.75;;;14.32;;
48285;SDS011;34102;47.716;10.296;2022-12-10T07:33:00;23.20;;;14.25;;
48285;SDS011;34102;47.716;10.296;2022-12-10T07:35:25;22.83;;;13.48;;
48285;SDS011;34102;47.716;10.296;2022-12-10T07:37:51;23.15;;;13.40;;
48285;SDS011;34102;47.716;10.296;2022-12-10T07:40:16;26.20;;;14.52;;
48285;SDS011;34102;47.716;10.296;2022-12-10T07:42:41;23.92;;;14.00;;
48285;SDS011;34102;47.716;10.296;2022-12-10T07:45:07;19.83;;;12.77;;
48285;SDS011;34102;47.716;10.296;2022-12-10T07:47:34;23.20;;;13.35;;
48285;SDS011;34102;47.716;10.296;2022-12-10T07:49:59;26.08;;;14.50;;
48285;SDS011;34102;47.716;10.296;2022-12-10T07:52:25;25.08;;;14.32;;
48285;SDS011;34102;47.716;10.296;2022-12-10T07:54:50;21.20;;;12.70;;
48285;SDS011;34102;47.716;10.296;2022-12-10T07:57:15;21.52;;;13.27;;
48285;SDS011;34102;47.716;10.296;2022-12-10T07:59:40;20.98;;;13.25;;
48285;SDS011;34102;47.716;10.296;2022-12-10T08:02:07;25.30;;;14.18;;
48285;SDS011;34102;47.716;10.296;2022-12-10T08:04:32;25.58;;;14.35;;
48285;SDS011;34102;47.716;10.296;2022-12-10T08:06:57;27.48;;;16.10;;
48285;SDS011;34102;47.716;10.296;2022-12-10T08:09:23;29.15;;;15.60;;
48285;SDS011;34102;47.716;10.296;2022-12-10T08:11:48;25.88;;;14.38;;
48285;SDS011;34102;47.716;10.296;2022-12-10T08:14:13;28.33;;;15.50;;
48285;SDS011;34102;47.716;10.296;2022-12-10T08:16:38;26.77;;;14.50;;
48285;SDS011;34102;47.716;10.296;2022-12-10T08:19:04;28.55;;;16.38;;
48285;SDS011;34102;47.716;10.296;2022-12-10T08:21:30;29.55;;;16.00;;
48285;SDS011;34102;47.716;10.296;2022-12-10T08:23:55;30.00;;;16.27;;
48285;SDS011;34102;47.716;10.296;2022-12-10T08:26:24;31.90;;;16.83;;
48285;SDS011;34102;47.716;10.296;2022-12-10T08:28:50;32.45;;;17.35;;
48285;SDS011;34102;47.716;10.296;2022-12-10T08:31:16;30.52;;;15.95;;
48285;SDS011;34102;47.716;10.296;2022-12-10T08:33:42;32.40;;;17.30;;
48285;SDS011;34102;47.716;10.296;2022-12-10T08:36:08;31.75;;;16.95;;
48285;SDS011;34102;47.716;10.296;2022-12-10T08:38:34;34.00;;;16.85;;
48285;SDS011;34102;47.716;10.296;2022-12-10T08:41:04;33.97;;;17.70;;
48285;SDS011;34102;47.716;10.296;2022-12-10T08:43:29;28.73;;;16.10;;
48285;SDS011;34102;47.716;10.296;2022-12-10T08:45:57;31.33;;;16.83;;
48285;SDS011;34102;47.716;10.296;2022-12-10T08:48:22;31.15;;;16.40;;
48285;SDS011;34102;47.716;10.296;2022-12-10T08:50:48;33.60;;;16.95;;
48285;SDS011;34102;47.716;10.296;2022-12-10T08:53:14;30.88;;;16.48;;
48285;SDS011;34102;47.716;10.296;2022-12-10T08:55:39;29.95;;;16.75;;
48285;SDS011;34102;47.716;10.296;2022-12-10T08:58:04;29.55;;;15.85;;
48285;SDS011;34102;47.716;10.296;2022-12-10T09:00:30;26.17;;;15.02;;
48285;SDS011;34102;47.716;10.296;2022-12-10T09:02:55;27.92;;;14.52;;
48285;SDS011;34102;47.716;10.296;2022-12-10T09:05:20;29.77;;;15.30;;
48285;SDS011;34102;47.716;10.296;2022-12-10T09:07:45;27.45;;;14.82;;
48285;SDS011;34102;47.716;10.296;2022-12-10T09:10:11;27.48;;;16.00;;
48285;SDS011;34102;47.716;10.296;2022-12-10T09:12:36;32.25;;;16.05;;
48285;SDS011;34102;47.716;10.296;2022-12-10T09:15:02;26.73;;;14.27;;
48285;SDS011;34102;47.716;10.296;2022-12-10T09:17:27;28.55;;;15.00;;
48285;SDS011;34102;47.716;10.296;2022-12-10T09:19:52;24.65;;;13.20;;
48285;SDS011;34102;47.716;10.296;2022-12-10T09:22:18;28.55;;;14.80;;
48285;SDS011;34102;47.716;10.296;2022-12-10T09:24:43;25.48;;;14.00;;
48285;SDS011;34102;47.716;10.296;2022-12-10T09:27:08;26.85;;;14.48;;
48285;SDS011;34102;47.716;10.296;2022-12-10T09:29:34;26.15;;;14.57;;
48285;SDS011;34102;47.716;10.296;2022-12-10T09:31:59;29.35;;;15.00;;
48285;SDS011;34102;47.716;10.296;2022-12-10T09:34:24;26.60;;;13.35;;
48285;SDS011;34102;47.716;10.296;2022-12-10T09:36:49;30.65;;;16.65;;
48285;SDS011;34102;47.716;10.296;2022-12-10T09:39:15;30.20;;;15.68;;
48285;SDS011;34102;47.716;10.296;2022-12-10T09:44:50;26.55;;;14.30;;
48285;SDS011;34102;47.716;10.296;2022-12-10T09:47:19;28.02;;;14.32;;
48285;SDS011;34102;47.716;10.296;2022-12-10T09:49:53;25.13;;;13.93;;
48285;SDS011;34102;47.716;10.296;2022-12-10T09:52:21;25.38;;;14.00;;
48285;SDS011;34102;47.716;10.296;2022-12-10T09:54:49;26.38;;;13.75;;
48285;SDS011;34102;47.716;10.296;2022-12-10T09:57:19;27.02;;;14.02;;
48285;SDS011;34102;47.716;10.296;2022-12-10T09:59:49;25.00;;;14.00;;
48285;SDS011;34102;47.716;10.296;2022-12-10T10:04:43;24.42;;;13.77;;
48285;SDS011;34102;47.716;10.296;2022-12-10T10:07:10;28.00;;;15.60;;
48285;SDS011;34102;47.716;10.296;2022-12-10T10:09:38;26.42;;;14.40;;
48285;SDS011;34102;47.716;10.296;2022-12-10T10:12:09;26.17;;;13.63;;
48285;SDS011;34102;47.716;10.296;2022-12-10T10:14:35;25.17;;;13.35;;
48285;SDS011;34102;47.716;10.296;2022-12-10T10:17:02;20.60;;;12.80;;
48285;SDS011;34102;47.716;10.296;2022-12-10T10:19:29;23.45;;;13.13;;
48285;SDS011;34102;47.716;10.296;2022-12-10T10:21:55;26.23;;;13.77;;
48285;SDS011;34102;47.716;10.296;2022-12-10T10:24:33;25.85;;;14.73;;
48285;SDS011;34102;47.716;10.296;2022-12-10T10:27:01;26.02;;;14.43;;
48285;SDS011;34102;47.716;10.296;2022-12-10T10:29:33;27.70;;;14.55;;
48285;SDS011;34102;47.716;10.296;2022-12-10T10:32:13;30.00;;;16.60;;
48285;SDS011;34102;47.716;10.296;2022-12-10T10:34:39;27.05;;;14.90;;
48285;SDS011;34102;47.716;10.296;2022-12-10T10:37:04;31.75;;;14.90;;
48285;SDS011;34102;47.716;10.296;2022-12-10T10:39:30;24.35;;;13.73;;
48285;SDS011;34102;47.716;10.296;2022-12-10T10:41:56;27.13;;;14.85;;
48285;SDS011;34102;47.716;10.296;2022-12-10T10:44:23;25.13;;;14.30;;
48285;SDS011;34102;47.716;10.296;2022-12-10T10:46:50;24.35;;;14.40;;
48285;SDS011;34102;47.716;10.296;2022-12-10T10:49:24;26.80;;;14.70;;
48285;SDS011;34102;47.716;10.296;2022-12-10T10:51:50;27.02;;;13.38;;
48285;SDS011;34102;47.716;10.296;2022-12-10T10:57:04;22.25;;;12.40;;
48285;SDS011;34102;47.716;10.296;2022-12-10T10:59:34;24.48;;;11.70;;
48285;SDS011;34102;47.716;10.296;2022-12-10T11:07:18;21.85;;;11.25;;
48285;SDS011;34102;47.716;10.296;2022-12-10T11:09:44;21.95;;;11.02;;
48285;SDS011;34102;47.716;10.296;2022-12-10T11:12:29;18.80;;;10.18;;
48285;SDS011;34102;47.716;10.296;2022-12-10T11:14:56;20.00;;;10.73;;
48285;SDS011;34102;47.716;10.296;2022-12-10T11:17:24;20.55;;;10.93;;
48285;SDS011;34102;47.716;10.296;2022-12-10T11:22:22;16.98;;;10.13;;
48285;SDS011;34102;47.716;10.296;2022-12-10T11:24:48;21.38;;;12.27;;
48285;SDS011;34102;47.716;10.296;2022-12-10T11:27:17;23.05;;;12.43;;
48285;SDS011;34102;47.716;10.296;2022-12-10T11:29:52;21.90;;;10.55;;
48285;SDS011;34102;47.716;10.296;2022-12-10T11:32:25;19.52;;;10.77;;
48285;SDS011;34102;47.716;10.296;2022-12-10T11:43:02;28.83;;;14.05;;
48285;SDS011;34102;47.716;10.296;2022-12-10T11:50:59;28.27;;;16.08;;
48285;SDS011;34102;47.716;10.296;2022-12-10T12:01:01;27.80;;;15.75;;
48285;SDS011;34102;47.716;10.296;2022-12-10T12:13:35;31.02;;;18.25;;
48285;SDS011;34102;47.716;10.296;2022-12-10T12:16:09;32.25;;;18.42;;
48285;SDS011;34102;47.716;10.296;2022-12-10T12:21:13;33.90;;;20.02;;
48285;SDS011;34102;47.716;10.296;2022-12-10T12:26:13;32.88;;;19.85;;
48285;SDS011;34102;47.716;10.296;2022-12-10T12:28:40;35.40;;;19.20;;
48285;SDS011;34102;47.716;10.296;2022-12-10T12:31:52;31.95;;;20.33;;
48285;SDS011;34102;47.716;10.296;2022-12-10T12:34:00;33.10;;;19.38;;
48285;SDS011;34102;47.716;10.296;2022-12-10T12:36:27;34.47;;;20.73;;
48285;SDS011;34102;47.716;10.296;2022-12-10T12:38:58;35.05;;;19.73;;
48285;SDS011;34102;47.716;10.296;2022-12-10T12:43:52;35.60;;;20.10;;
48285;SDS011;34102;47.716;10.296;2022-12-10T12:46:27;33.85;;;19.27;;
48285;SDS011;34102;47.716;10.296;2022-12-10T12:48:56;37.13;;;22.02;;
48285;SDS011;34102;47.716;10.296;2022-12-10T12:51:25;35.17;;;19.75;;
48285;SDS011;34102;47.716;10.296;2022-12-10T12:53:51;31.23;;;18.85;;
48285;SDS011;34102;47.716;10.296;2022-12-10T12:59:06;33.10;;;19.40;;
48285;SDS011;34102;47.716;10.296;2022-12-10T13:01:43;34.05;;;18.73;;
48285;SDS011;34102;47.716;10.296;2022-12-10T13:04:12;32.80;;;18.98;;
48285;SDS011;34102;47.716;10.296;2022-12-10T13:06:38;29.85;;;18.02;;
48285;SDS011;34102;47.716;10.296;2022-12-10T13:11:44;27.25;;;15.77;;
48285;SDS011;34102;47.716;10.296;2022-12-10T13:14:33;28.13;;;16.73;;
48285;SDS011;34102;47.716;10.296;2022-12-10T13:24:17;29.58;;;16.75;;
48285;SDS011;34102;47.716;10.296;2022-12-10T13:29:27;26.17;;;14.75;;
48285;SDS011;34102;47.716;10.296;2022-12-10T13:34:41;25.38;;;14.48;;
48285;SDS011;34102;47.716;10.296;2022-12-10T13:40:40;21.17;;;13.48;;
48285;SDS011;34102;47.716;10.296;2022-12-10T13:42:36;18.77;;;12.32;;
48285;SDS011;34102;47.716;10.296;2022-12-10T13:47:47;19.60;;;11.85;;
48285;SDS011;34102;47.716;10.296;2022-12-10T13:52:47;19.80;;;11.63;;
48285;SDS011;34102;47.716;10.296;2022-12-10T13:55:25;16.50;;;10.93;;
48285;SDS011;34102;47.716;10.296;2022-12-10T14:00:35;16.42;;;10.27;;
48285;SDS011;34102;47.716;10.296;2022-12-10T14:03:14;17.63;;;10.35;;
48285;SDS011;34102;47.716;10.296;2022-12-10T14:08:17;16.30;;;9.23;;
48285;SDS011;34102;47.716;10.296;2022-12-10T14:10:43;16.05;;;9.43;;
48285;SDS011;34102;47.716;10.296;2022-12-10T14:13:10;16.42;;;10.18;;
48285;SDS011;34102;47.716;10.296;2022-12-10T14:15:36;17.00;;;9.63;;
48285;SDS011;34102;47.716;10.296;2022-12-10T14:18:12;17.38;;;9.63;;
48285;SDS011;34102;47.716;10.296;2022-12-10T14:20:39;15.98;;;10.43;;
48285;SDS011;34102;47.716;10.296;2022-12-10T14:23:19;16.40;;;9.98;;
48285;SDS011;34102;47.716;10.296;2022-12-10T14:26:16;15.57;;;8.95;;
48285;SDS011;34102;47.716;10.296;2022-12-10T14:28:43;15.75;;;9.48;;
48285;SDS011;34102;47.716;10.296;2022-12-10T14:31:13;16.73;;;9.98;;
48285;SDS011;34102;47.716;10.296;2022-12-10T14:33:41;15.30;;;8.88;;
48285;SDS011;34102;47.716;10.296;2022-12-10T14:36:12;16.65;;;9.43;;
48285;SDS011;34102;47.716;10.296;2022-12-10T14:38:39;16.92;;;9.85;;
48285;SDS011;34102;47.716;10.296;2022-12-10T14:41:04;14.50;;;9.35;;
48285;SDS011;34102;47.716;10.296;2022-12-10T14:43:32;17.70;;;9.70;;
48285;SDS011;34102;47.716;10.296;2022-12-10T14:46:00;17.63;;;10.70;;
48285;SDS011;34102;47.716;10.296;2022-12-10T14:48:27;17.63;;;10.23;;
48285;SDS011;34102;47.716;10.296;2022-12-10T14:50:52;16.95;;;10.15;;
48285;SDS011;34102;47.716;10.296;2022-12-10T14:53:27;17.45;;;10.48;;
48285;SDS011;34102;47.716;10.296;2022-12-10T14:58:24;20.13;;;11.90;;
48285;SDS011;34102;47.716;10.296;2022-12-10T15:00:51;23.42;;;11.98;;
48285;SDS011;34102;47.716;10.296;2022-12-10T15:03:22;21.77;;;12.80;;
48285;SDS011;34102;47.716;10.296;2022-12-10T15:05:54;21.73;;;11.85;;
48285;SDS011;34102;47.716;10.296;2022-12-10T15:08:20;19.08;;;10.68;;
48285;SDS011;34102;47.716;10.296;2022-12-10T15:10:45;21.58;;;12.35;;
48285;SDS011;34102;47.716;10.296;2022-12-10T15:13:54;18.85;;;11.18;;
48285;SDS011;34102;47.716;10.296;2022-12-10T15:16:00;19.98;;;12.57;;
48285;SDS011;34102;47.716;10.296;2022-12-10T15:20:52;18.17;;;10.25;;
48285;SDS011;34102;47.716;10.296;2022-12-10T15:23:23;19.15;;;11.13;;
48285;SDS011;34102;47.716;10.296;2022-12-10T15:25:52;21.10;;;11.75;;
48285;SDS011;34102;47.716;10.296;2022-12-10T15:28:26;18.30;;;10.98;;
48285;SDS011;34102;47.716;10.296;2022-12-10T15:30:55;17.95;;;10.45;;
48285;SDS011;34102;47.716;10.296;2022-12-10T15:33:27;20.55;;;11.00;;
48285;SDS011;34102;47.716;10.296;2022-12-10T15:35:54;22.25;;;11.88;;
48285;SDS011;34102;47.716;10.296;2022-12-10T15:38:22;20.35;;;11.75;;
48285;SDS011;34102;47.716;10.296;2022-12-10T15:40:48;21.55;;;10.55;;
48285;SDS011;34102;47.716;10.296;2022-12-10T15:43:24;19.05;;;10.77;;
48285;SDS011;34102;47.716;10.296;2022-12-10T15:45:49;17.15;;;9.63;;
48285;SDS011;34102;47.716;10.296;2022-12-10T15:48:15;17.42;;;9.65;;
48285;SDS011;34102;47.716;10.296;2022-12-10T15:50:41;18.15;;;9.45;;
48285;SDS011;34102;47.716;10.296;2022-12-10T15:53:13;15.48;;;8.90;;
48285;SDS011;34102;47.716;10.296;2022-12-10T15:55:38;16.13;;;8.98;;
48285;SDS011;34102;47.716;10.296;2022-12-10T15:58:10;17.63;;;9.45;;
48285;SDS011;34102;47.716;10.296;2022-12-10T16:00:36;17.90;;;10.32;;
48285;SDS011;34102;47.716;10.296;2022-12-10T16:03:03;15.75;;;9.05;;
48285;SDS011;34102;47.716;10.296;2022-12-10T16:05:30;16.48;;;9.20;;
48285;SDS011;34102;47.716;10.296;2022-12-10T16:07:58;17.55;;;10.73;;
48285;SDS011;34102;47.716;10.296;2022-12-10T16:10:25;18.23;;;10.55;;
48285;SDS011;34102;47.716;10.296;2022-12-10T16:12:58;17.98;;;10.20;;
48285;SDS011;34102;47.716;10.296;2022-12-10T16:15:24;17.00;;;10.23;;
48285;SDS011;34102;47.716;10.296;2022-12-10T16:17:50;17.27;;;10.27;;
48285;SDS011;34102;47.716;10.296;2022-12-10T16:20:21;22.92;;;10.90;;
48285;SDS011;34102;47.716;10.296;2022-12-10T16:22:47;20.20;;;11.85;;
48285;SDS011;34102;47.716;10.296;2022-12-10T16:25:12;19.50;;;10.35;;
48285;SDS011;34102;47.716;10.296;2022-12-10T16:27:38;19.88;;;10.35;;
48285;SDS011;34102;47.716;10.296;2022-12-10T16:30:18;20.65;;;11.25;;
48285;SDS011;34102;47.716;10.296;2022-12-10T16:32:44;19.20;;;10.85;;
48285;SDS011;34102;47.716;10.296;2022-12-10T16:35:09;17.83;;;11.05;;
48285;SDS011;34102;47.716;10.296;2022-12-10T16:37:35;17.88;;;11.23;;
48285;SDS011;34102;47.716;10.296;2022-12-10T16:40:00;19.45;;;11.23;;
48285;SDS011;34102;47.716;10.296;2022-12-10T16:42:26;20.15;;;12.15;;
48285;SDS011;34102;47.716;10.296;2022-12-10T16:44:51;17.90;;;10.60;;
48285;SDS011;34102;47.716;10.296;2022-12-10T16:47:16;18.67;;;10.32;;
48285;SDS011;34102;47.716;10.296;2022-12-10T16:49:42;19.73;;;11.13;;
48285;SDS011;34102;47.716;10.296;2022-12-10T16:52:11;16.98;;;10.45;;
48285;SDS011;34102;47.716;10.296;2022-12-10T16:54:36;15.13;;;9.27;;
48285;SDS011;34102;47.716;10.296;2022-12-10T16:57:03;15.48;;;9.07;;
48285;SDS011;34102;47.716;10.296;2022-12-10T16:59:29;14.07;;;8.65;;
48285;SDS011;34102;47.716;10.296;2022-12-10T17:01:54;13.07;;;7.45;;
48285;SDS011;34102;47.716;10.296;2022-12-10T17:04:19;14.68;;;8.30;;
48285;SDS011;34102;47.716;10.296;2022-12-10T17:06:45;13.70;;;8.50;;
48285;SDS011;34102;47.716;10.296;2022-12-10T17:09:10;13.35;;;8.35;;
48285;SDS011;34102;47.716;10.296;2022-12-10T17:11:39;15.23;;;8.80;;
48285;SDS011;34102;47.716;10.296;2022-12-10T17:16:41;19.75;;;9.48;;
48285;SDS011;34102;47.716;10.296;2022-12-10T17:19:08;15.98;;;8.93;;
48285;SDS011;34102;47.716;10.296;2022-12-10T17:21:33;14.80;;;9.63;;
48285;SDS011;34102;47.716;10.296;2022-12-10T17:23:59;16.65;;;9.43;;
48285;SDS011;34102;47.716;10.296;2022-12-10T17:26:28;21.27;;;9.68;;
48285;SDS011;34102;47.716;10.296;2022-12-10T17:28:54;21.75;;;11.55;;
48285;SDS011;34102;47.716;10.296;2022-12-10T17:31:19;17.08;;;9.65;;
48285;SDS011;34102;47.716;10.296;2022-12-10T17:33:44;21.02;;;11.25;;
48285;SDS011;34102;47.716;10.296;2022-12-10T17:36:10;18.08;;;10.25;;
48285;SDS011;34102;47.716;10.296;2022-12-10T17:38:35;18.40;;;10.30;;
48285;SDS011;34102;47.716;10.296;2022-12-10T17:41:01;17.95;;;10.45;;
48285;SDS011;34102;47.716;10.296;2022-12-10T17:43:26;17.92;;;10.93;;
48285;SDS011;34102;47.716;10.296;2022-12-10T17:45:51;19.27;;;11.02;;
48285;SDS011;34102;47.716;10.296;2022-12-10T17:48:17;20.30;;;11.60;;
48285;SDS011;34102;47.716;10.296;2022-12-10T17:50:44;19.30;;;11.95;;
48285;SDS011;34102;47.716;10.296;2022-12-10T17:53:10;18.83;;;11.38;;
48285;SDS011;34102;47.716;10.296;2022-12-10T17:55:39;22.17;;;11.45;;
48285;SDS011;34102;47.716;10.296;2022-12-10T17:58:04;20.38;;;12.20;;
48285;SDS011;34102;47.716;10.296;2022-12-10T18:00:31;19.23;;;11.65;;
48285;SDS011;34102;47.716;10.296;2022-12-10T18:02:56;22.77;;;13.18;;
48285;SDS011;34102;47.716;10.296;2022-12-10T18:05:22;19.35;;;10.63;;
48285;SDS011;34102;47.716;10.296;2022-12-10T18:07:47;18.85;;;11.32;;
48285;SDS011;34102;47.716;10.296;2022-12-10T18:10:18;19.95;;;11.95;;
48285;SDS011;34102;47.716;10.296;2022-12-10T18:12:43;20.67;;;11.50;;
48285;SDS011;34102;47.716;10.296;2022-12-10T18:15:10;17.42;;;10.10;;
48285;SDS011;34102;47.716;10.296;2022-12-10T18:17:35;17.80;;;9.63;;
48285;SDS011;34102;47.716;10.296;2022-12-10T18:20:01;21.27;;;11.13;;
48285;SDS011;34102;47.716;10.296;2022-12-10T18:22:26;16.80;;;10.52;;
48285;SDS011;34102;47.716;10.296;2022-12-10T18:24:51;17.00;;;10.13;;
48285;SDS011;34102;47.716;10.296;2022-12-10T18:27:16;17.42;;;10.10;;
48285;SDS011;34102;47.716;10.296;2022-12-10T18:29:42;14.82;;;8.93;;
48285;SDS011;34102;47.716;10.296;2022-12-10T18:32:09;20.50;;;9.52;;
48285;SDS011;34102;47.716;10.296;2022-12-10T18:34:35;15.18;;;8.77;;
48285;SDS011;34102;47.716;10.296;2022-12-10T18:37:00;16.98;;;9.18;;
48285;SDS011;34102;47.716;10.296;2022-12-10T18:39:26;16.73;;;8.90;;
48285;SDS011;34102;47.716;10.296;2022-12-10T18:41:53;15.93;;;8.75;;
48285;SDS011;34102;47.716;10.296;2022-12-10T18:44:20;13.05;;;7.90;;
48285;SDS011;34102;47.716;10.296;2022-12-10T18:46:47;13.88;;;9.32;;
48285;SDS011;34102;47.716;10.296;2022-12-10T18:49:12;13.07;;;7.38;;
48285;SDS011;34102;47.716;10.296;2022-12-10T18:51:38;14.85;;;8.68;;
48285;SDS011;34102;47.716;10.296;2022-12-10T18:54:03;13.25;;;8.40;;
48285;SDS011;34102;47.716;10.296;2022-12-10T18:56:28;19.23;;;9.90;;
48285;SDS011;34102;47.716;10.296;2022-12-10T18:58:57;17.38;;;9.60;;
48285;SDS011;34102;47.716;10.296;2022-12-10T19:01:22;17.70;;;9.93;;
48285;SDS011;34102;47.716;10.296;2022-12-10T19:03:49;16.75;;;9.63;;
48285;SDS011;34102;47.716;10.296;2022-12-10T19:06:18;18.20;;;10.30;;
48285;SDS011;34102;47.716;10.296;2022-12-10T19:08:44;18.13;;;10.75;;
48285;SDS011;34102;47.716;10.296;2022-12-10T19:11:11;22.20;;;11.80;;
48285;SDS011;34102;47.716;10.296;2022-12-10T19:13:37;18.45;;;11.25;;
48285;SDS011;34102;47.716;10.296;2022-12-10T19:16:03;19.60;;;11.30;;
48285;SDS011;34102;47.716;10.296;2022-12-10T19:18:30;20.83;;;11.93;;
48285;SDS011;34102;47.716;10.296;2022-12-10T19:20:55;17.90;;;10.68;;
48285;SDS011;34102;47.716;10.296;2022-12-10T19:23:20;18.85;;;11.68;;
48285;SDS011;34102;47.716;10.296;2022-12-10T19:25:46;21.55;;;10.77;;
48285;SDS011;34102;47.716;10.296;2022-12-10T19:28:11;18.83;;;10.57;;
48285;SDS011;34102;47.716;10.296;2022-12-10T19:30:37;19.52;;;11.52;;
48285;SDS011;34102;47.716;10.296;2022-12-10T19:33:02;18.55;;;10.45;;
48285;SDS011;34102;47.716;10.296;2022-12-10T19:35:27;20.33;;;12.32;;
48285;SDS011;34102;47.716;10.296;2022-12-10T19:37:53;20.95;;;12.10;;
48285;SDS011;34102;47.716;10.296;2022-12-10T19:42:47;21.02;;;11.90;;
48285;SDS011;34102;47.716;10.296;2022-12-10T19:45:13;21.10;;;11.93;;
48285;SDS011;34102;47.716;10.296;2022-12-10T19:47:38;22.50;;;12.40;;
48285;SDS011;34102;47.716;10.296;2022-12-10T19:50:04;21.33;;;12.68;;
48285;SDS011;34102;47.716;10.296;2022-12-10T19:52:29;22.38;;;12.68;;
48285;SDS011;34102;47.716;10.296;2022-12-10T19:54:54;21.20;;;12.85;;
48285;SDS011;34102;47.716;10.296;2022-12-10T19:57:20;23.42;;;12.65;;
48285;SDS011;34102;47.716;10.296;2022-12-10T19:59:46;25.77;;;13.00;;
48285;SDS011;34102;47.716;10.296;2022-12-10T20:02:11;19.75;;;12.18;;
48285;SDS011;34102;47.716;10.296;2022-12-10T20:04:37;21.33;;;13.25;;
48285;SDS011;34102;47.716;10.296;2022-12-10T20:07:02;21.23;;;12.20;;
48285;SDS011;34102;47.716;10.296;2022-12-10T20:09:27;22.42;;;12.70;;
48285;SDS011;34102;47.716;10.296;2022-12-10T20:11:53;29.30;;;16.23;;
48285;SDS011;34102;47.716;10.296;2022-12-10T20:14:19;26.40;;;14.70;;
48285;SDS011;34102;47.716;10.296;2022-12-10T20:16:45;25.88;;;13.82;;
48285;SDS011;34102;47.716;10.296;2022-12-10T20:19:12;21.92;;;13.32;;
48285;SDS011;34102;47.716;10.296;2022-12-10T20:21:38;21.92;;;13.40;;
48285;SDS011;34102;47.716;10.296;2022-12-10T20:24:03;22.13;;;13.23;;
48285;SDS011;34102;47.716;10.296;2022-12-10T20:26:33;24.15;;;13.20;;
48285;SDS011;34102;47.716;10.296;2022-12-10T20:28:59;20.98;;;13.05;;
48285;SDS011;34102;47.716;10.296;2022-12-10T20:31:25;25.00;;;13.95;;
48285;SDS011;34102;47.716;10.296;2022-12-10T20:33:50;22.40;;;13.15;;
48285;SDS011;34102;47.716;10.296;2022-12-10T20:36:20;25.27;;;13.00;;
48285;SDS011;34102;47.716;10.296;2022-12-10T20:38:46;22.73;;;12.65;;
48285;SDS011;34102;47.716;10.296;2022-12-10T20:41:12;21.13;;;12.85;;
48285;SDS011;34102;47.716;10.296;2022-12-10T20:43:38;21.88;;;12.98;;
48285;SDS011;34102;47.716;10.296;2022-12-10T20:46:08;21.75;;;12.63;;
48285;SDS011;34102;47.716;10.296;2022-12-10T20:48:37;23.38;;;14.00;;
48285;SDS011;34102;47.716;10.296;2022-12-10T20:51:02;27.70;;;15.00;;
48285;SDS011;34102;47.716;10.296;2022-12-10T20:53:28;24.58;;;14.52;;
48285;SDS011;34102;47.716;10.296;2022-12-10T20:55:53;24.63;;;13.38;;
48285;SDS011;34102;47.716;10.296;2022-12-10T20:58:18;23.70;;;13.35;;
48285;SDS011;34102;47.716;10.296;2022-12-10T21:00:44;22.40;;;13.57;;
48285;SDS011;34102;47.716;10.296;2022-12-10T21:03:09;21.63;;;12.20;;
48285;SDS011;34102;47.716;10.296;2022-12-10T21:05:34;21.17;;;12.65;;
48285;SDS011;34102;47.716;10.296;2022-12-10T21:08:00;22.70;;;12.60;;
48285;SDS011;34102;47.716;10.296;2022-12-10T21:10:31;19.80;;;12.18;;
48285;SDS011;34102;47.716;10.296;2022-12-10T21:13:15;20.02;;;11.88;;
48285;SDS011;34102;47.716;10.296;2022-12-10T21:15:40;24.27;;;12.90;;
48285;SDS011;34102;47.716;10.296;2022-12-10T21:18:05;25.13;;;14.20;;
48285;SDS011;34102;47.716;10.296;2022-12-10T21:20:30;21.05;;;12.77;;
48285;SDS011;34102;47.716;10.296;2022-12-10T21:22:56;20.90;;;12.68;;
48285;SDS011;34102;47.716;10.296;2022-12-10T21:25:21;25.20;;;14.00;;
48285;SDS011;34102;47.716;10.296;2022-12-10T21:27:46;25.83;;;14.23;;
48285;SDS011;34102;47.716;10.296;2022-12-10T21:30:12;27.25;;;15.55;;
48285;SDS011;34102;47.716;10.296;2022-12-10T21:32:37;28.30;;;15.40;;
48285;SDS011;34102;47.716;10.296;2022-12-10T21:35:03;25.85;;;14.80;;
48285;SDS011;34102;47.716;10.296;2022-12-10T21:37:28;26.92;;;16.20;;
48285;SDS011;34102;47.716;10.296;2022-12-10T21:39:53;22.90;;;13.40;;
48285;SDS011;34102;47.716;10.296;2022-12-10T21:42:21;21.95;;;12.38;;
48285;SDS011;34102;47.716;10.296;2022-12-10T21:45:05;22.63;;;13.15;;
48285;SDS011;34102;47.716;10.296;2022-12-10T21:47:30;23.67;;;12.27;;
48285;SDS011;34102;47.716;10.296;2022-12-10T21:49:56;21.92;;;12.68;;
48285;SDS011;34102;47.716;10.296;2022-12-10T21:52:21;22.00;;;13.35;;
48285;SDS011;34102;47.716;10.296;2022-12-10T21:54:46;21.67;;;11.57;;
48285;SDS011;34102;47.716;10.296;2022-12-10T21:57:11;22.88;;;12.57;;
48285;SDS011;34102;47.716;10.296;2022-12-10T21:59:37;27.05;;;13.70;;
48285;SDS011;34102;47.716;10.296;2022-12-10T22:02:02;26.48;;;14.10;;
48285;SDS011;34102;47.716;10.296;2022-12-10T22:04:27;24.88;;;13.73;;
48285;SDS011;34102;47.716;10.296;2022-12-10T22:06:52;21.27;;;12.20;;
48285;SDS011;34102;47.716;10.296;2022-12-10T22:09:18;25.02;;;12.95;;
48285;SDS011;34102;47.716;10.296;2022-12-10T22:11:44;25.23;;;13.50;;
48285;SDS011;34102;47.716;10.296;2022-12-10T22:14:09;26.10;;;14.35;;
48285;SDS011;34102;47.716;10.296;2022-12-10T22:16:35;24.27;;;13.55;;
48285;SDS011;34102;47.716;10.296;2022-12-10T22:19:00;26.42;;;14.93;;